createdAt,value
2022-08-16T00:00:05.156Z,1.70
2022-08-16T00:01:05.769Z,1.60
2022-08-16T00:02:03.419Z,1.80
2022-08-16T00:03:04.417Z,1.70
2022-08-16T00:04:05.282Z,1.70
2022-08-16T00:05:03.438Z,1.80
2022-08-16T00:06:03.367Z,1.70
2022-08-16T00:07:03.380Z,1.90
2022-08-16T00:08:04.820Z,1.80
2022-08-16T00:09:03.351Z,1.80
2022-08-16T00:10:03.413Z,1.70
2022-08-16T00:11:03.340Z,1.70
2022-08-16T00:12:03.330Z,1.80
2022-08-16T00:13:03.325Z,1.80
2022-08-16T00:14:08.576Z,1.80
2022-08-16T00:15:04.379Z,1.70
2022-08-16T00:17:00.656Z,1.80
2022-08-16T00:17:18.267Z,1.70
2022-08-16T00:18:04.432Z,2.10
2022-08-16T00:19:03.285Z,2.00
2022-08-16T00:20:03.997Z,2.00
2022-08-16T00:21:03.708Z,2.00
2022-08-16T00:22:06.953Z,2.00
2022-08-16T00:23:04.259Z,2.00
2022-08-16T00:24:04.558Z,1.70
2022-08-16T00:25:03.262Z,1.90
2022-08-16T00:26:33.752Z,1.80
2022-08-16T00:27:04.240Z,1.80
2022-08-16T00:28:03.251Z,1.80
2022-08-16T00:29:03.210Z,1.90
2022-08-16T00:30:09.026Z,1.80
2022-08-16T00:31:04.240Z,1.90
2022-08-16T00:32:05.584Z,2.00
2022-08-16T00:33:03.195Z,2.10
2022-08-16T00:34:04.623Z,2.00
2022-08-16T00:35:04.202Z,2.00
2022-08-16T00:36:04.167Z,1.90
2022-08-16T00:37:03.559Z,1.80
2022-08-16T00:38:03.179Z,2.10
2022-08-16T00:39:04.151Z,2.10
2022-08-16T00:40:03.192Z,2.00
2022-08-16T00:41:03.138Z,2.10
2022-08-16T00:42:03.190Z,2.00
2022-08-16T00:43:03.123Z,2.00
2022-08-16T00:44:03.112Z,2.10
2022-08-16T00:45:06.448Z,2.00
2022-08-16T00:46:33.209Z,2.00
2022-08-16T00:47:06.128Z,2.10
2022-08-16T00:48:03.093Z,2.20
2022-08-16T00:49:04.085Z,1.90
2022-08-16T00:50:03.083Z,1.80
2022-08-16T00:51:03.063Z,2.30
2022-08-16T00:52:03.057Z,2.10
2022-08-16T00:53:03.088Z,2.40
2022-08-16T00:54:03.057Z,2.00
2022-08-16T00:55:03.034Z,2.40
2022-08-16T00:56:05.270Z,2.10
2022-08-16T00:57:03.024Z,2.30
2022-08-16T00:58:03.061Z,2.10
2022-08-16T00:59:03.012Z,2.20
2022-08-16T01:00:03.015Z,2.50
2022-08-16T01:01:03.091Z,2.40
2022-08-16T01:02:04.007Z,2.10
2022-08-16T01:03:04.069Z,2.30
2022-08-16T01:04:02.970Z,2.20
2022-08-16T01:05:11.394Z,2.20
2022-08-16T01:06:39.780Z,2.20
2022-08-16T01:07:03.954Z,2.30
2022-08-16T01:08:02.953Z,2.20
2022-08-16T01:09:03.992Z,2.50
2022-08-16T01:10:02.932Z,2.30
2022-08-16T01:11:03.916Z,2.00
2022-08-16T01:12:02.922Z,2.30
2022-08-16T01:13:05.318Z,2.20
2022-08-16T01:14:02.967Z,2.30
2022-08-16T01:15:02.909Z,2.40
2022-08-16T01:16:03.161Z,2.30
2022-08-16T01:17:02.871Z,2.20
2022-08-16T01:18:02.871Z,2.20
2022-08-16T01:19:02.867Z,2.30
2022-08-16T01:20:02.894Z,2.30
2022-08-16T01:21:03.841Z,2.30
2022-08-16T01:22:49.551Z,2.10
2022-08-16T01:23:03.844Z,2.50
2022-08-16T01:24:02.832Z,2.40
2022-08-16T01:25:02.882Z,2.30
2022-08-16T01:26:33.834Z,2.40
2022-08-16T01:27:04.199Z,2.70
2022-08-16T01:28:02.800Z,2.50
2022-08-16T01:29:02.833Z,2.60
2022-08-16T01:30:02.814Z,2.40
2022-08-16T01:31:02.821Z,2.00
2022-08-16T01:32:02.773Z,2.50
2022-08-16T01:33:15.255Z,2.30
2022-08-16T01:34:04.810Z,2.30
2022-08-16T01:35:02.967Z,2.30
2022-08-16T01:36:09.496Z,2.10
2022-08-16T01:37:03.748Z,2.30
2022-08-16T01:38:02.737Z,2.10
2022-08-16T01:39:02.729Z,2.30
2022-08-16T01:40:03.794Z,2.60
2022-08-16T01:41:02.714Z,2.40
2022-08-16T01:42:02.739Z,2.20
2022-08-16T01:43:02.700Z,2.50
2022-08-16T01:44:02.698Z,2.30
2022-08-16T01:45:02.700Z,2.30
2022-08-16T01:46:30.160Z,2.50
2022-08-16T01:47:03.711Z,2.20
2022-08-16T01:48:02.651Z,2.60
2022-08-16T01:49:04.662Z,2.70
2022-08-16T01:50:42.685Z,3.10
2022-08-16T01:51:09.488Z,3.00
2022-08-16T01:52:03.661Z,3.00
2022-08-16T01:53:02.673Z,2.10
2022-08-16T01:54:02.630Z,2.50
2022-08-16T01:55:02.630Z,2.30
2022-08-16T01:56:02.614Z,2.80
2022-08-16T01:57:02.612Z,2.30
2022-08-16T01:58:02.653Z,2.30
2022-08-16T01:59:02.592Z,2.40
2022-08-16T02:00:02.604Z,2.40
2022-08-16T02:01:02.625Z,2.40
2022-08-16T02:02:02.608Z,2.70
2022-08-16T02:03:02.636Z,2.50
2022-08-16T02:04:10.292Z,2.70
2022-08-16T02:05:03.677Z,2.70
2022-08-16T02:06:02.544Z,2.50
2022-08-16T02:07:02.548Z,2.40
2022-08-16T02:08:02.534Z,2.70
2022-08-16T02:09:02.569Z,2.40
2022-08-16T02:10:02.531Z,2.80
2022-08-16T02:11:02.538Z,2.70
2022-08-16T02:12:49.512Z,2.70
2022-08-16T02:13:03.885Z,2.60
2022-08-16T02:14:03.713Z,3.00
2022-08-16T02:15:02.531Z,3.00
2022-08-16T02:16:02.469Z,2.90
2022-08-16T02:17:02.585Z,3.20
2022-08-16T02:18:02.455Z,3.60
2022-08-16T02:19:02.449Z,3.70
2022-08-16T02:20:04.303Z,3.20
2022-08-16T02:21:03.479Z,3.60
2022-08-16T02:22:09.151Z,3.60
2022-08-16T02:23:05.700Z,3.90
2022-08-16T02:24:02.423Z,3.80
2022-08-16T02:25:03.465Z,3.80
2022-08-16T02:26:02.437Z,4.00
2022-08-16T02:27:02.401Z,4.60
2022-08-16T02:28:02.394Z,4.20
2022-08-16T02:29:02.464Z,4.20
2022-08-16T02:30:05.490Z,4.90
2022-08-16T02:31:02.396Z,5.20
2022-08-16T02:32:04.289Z,6.20
2022-08-16T02:33:03.861Z,6.50
2022-08-16T02:34:06.439Z,6.00
2022-08-16T02:35:02.339Z,5.70
2022-08-16T02:36:02.334Z,5.90
2022-08-16T02:37:02.387Z,6.30
2022-08-16T02:38:08.462Z,5.70
2022-08-16T02:39:03.343Z,6.20
2022-08-16T02:40:02.683Z,6.30
2022-08-16T02:41:02.307Z,6.20
2022-08-16T02:42:03.369Z,6.20
2022-08-16T02:43:02.724Z,5.30
2022-08-16T02:44:02.300Z,4.50
2022-08-16T02:45:02.334Z,4.90
2022-08-16T02:46:02.259Z,4.70
2022-08-16T02:47:02.470Z,5.10
2022-08-16T02:48:29.309Z,5.10
2022-08-16T02:49:03.241Z,5.70
2022-08-16T02:50:53.469Z,5.90
2022-08-16T02:51:06.467Z,5.40
2022-08-16T02:52:03.228Z,6.50
2022-08-16T02:53:02.296Z,6.70
2022-08-16T02:54:02.205Z,5.70
2022-08-16T02:55:02.196Z,5.60
2022-08-16T02:56:02.197Z,6.00
2022-08-16T02:57:02.177Z,6.50
2022-08-16T02:58:02.213Z,5.80
2022-08-16T02:59:02.242Z,6.80
2022-08-16T03:00:05.012Z,6.00
2022-08-16T03:01:03.216Z,6.40
2022-08-16T03:02:02.251Z,6.40
2022-08-16T03:03:03.424Z,7.20
2022-08-16T03:04:28.890Z,7.20
2022-08-16T03:05:03.132Z,7.50
2022-08-16T03:06:02.114Z,6.70
2022-08-16T03:07:04.368Z,6.40
2022-08-16T03:08:02.108Z,7.30
2022-08-16T03:09:02.116Z,7.50
2022-08-16T03:10:02.119Z,7.10
2022-08-16T03:11:02.083Z,7.20
2022-08-16T03:12:02.371Z,7.70
2022-08-16T03:13:02.375Z,7.30
2022-08-16T03:14:02.067Z,9.00
2022-08-16T03:15:03.110Z,9.90
2022-08-16T03:16:02.050Z,10.00
2022-08-16T03:17:02.237Z,10.40
2022-08-16T03:18:02.330Z,10.50
2022-08-16T03:19:02.032Z,10.00
2022-08-16T03:20:02.534Z,9.40
2022-08-16T03:21:02.043Z,10.20
2022-08-16T03:22:02.008Z,10.40
2022-08-16T03:23:02.183Z,10.70
2022-08-16T03:24:01.992Z,9.40
2022-08-16T03:25:02.047Z,11.10
2022-08-16T03:26:02.020Z,10.00
2022-08-16T03:27:02.964Z,11.40
2022-08-16T03:28:01.966Z,10.10
2022-08-16T03:29:02.966Z,10.70
2022-08-16T03:30:02.090Z,10.20
2022-08-16T03:31:01.948Z,10.30
2022-08-16T03:32:02.123Z,12.50
2022-08-16T03:33:01.936Z,11.40
2022-08-16T03:34:01.941Z,10.90
2022-08-16T03:35:02.011Z,10.20
2022-08-16T03:36:29.983Z,10.40
2022-08-16T03:37:02.940Z,10.50
2022-08-16T03:38:03.920Z,10.20
2022-08-16T03:39:01.895Z,11.00
2022-08-16T03:40:02.706Z,12.20
2022-08-16T03:41:03.049Z,9.80
2022-08-16T03:42:01.864Z,9.70
2022-08-16T03:43:19.847Z,8.90
2022-08-16T03:44:02.836Z,9.40
2022-08-16T03:45:03.421Z,11.10
2022-08-16T03:46:01.837Z,9.40
2022-08-16T03:47:01.832Z,10.10
2022-08-16T03:48:01.862Z,11.80
2022-08-16T03:49:02.821Z,13.40
2022-08-16T03:50:01.804Z,16.90
2022-08-16T03:51:01.799Z,16.40
2022-08-16T03:52:01.789Z,15.00
2022-08-16T03:53:05.803Z,14.70
2022-08-16T03:54:02.817Z,14.40
2022-08-16T03:55:02.780Z,13.80
2022-08-16T03:56:01.764Z,15.50
2022-08-16T03:57:01.847Z,16.90
2022-08-16T03:58:01.748Z,14.70
2022-08-16T03:59:01.779Z,15.60
2022-08-16T04:00:01.732Z,14.60
2022-08-16T04:01:01.790Z,14.80
2022-08-16T04:02:02.355Z,14.40
2022-08-16T04:03:01.789Z,14.30
2022-08-16T04:04:01.692Z,15.80
2022-08-16T04:05:01.996Z,15.60
2022-08-16T04:06:02.133Z,14.90
2022-08-16T04:07:02.743Z,14.80
2022-08-16T04:08:01.683Z,14.70
2022-08-16T04:09:02.694Z,15.00
2022-08-16T04:10:35.588Z,14.50
2022-08-16T04:11:02.666Z,14.70
2022-08-16T04:12:01.689Z,14.80
2022-08-16T04:13:04.192Z,15.10
2022-08-16T04:14:32.519Z,15.80
2022-08-16T04:15:02.679Z,14.60
2022-08-16T04:16:01.615Z,15.50
2022-08-16T04:17:01.824Z,15.20
2022-08-16T04:18:01.613Z,15.00
2022-08-16T04:19:04.110Z,15.40
2022-08-16T04:20:01.592Z,13.10
2022-08-16T04:21:01.621Z,13.60
2022-08-16T04:22:01.723Z,13.20
2022-08-16T04:23:02.575Z,13.40
2022-08-16T04:24:01.578Z,13.90
2022-08-16T04:25:01.565Z,13.40
2022-08-16T04:26:02.116Z,14.00
2022-08-16T04:27:01.547Z,13.10
2022-08-16T04:28:51.583Z,12.50
2022-08-16T04:29:15.082Z,12.90
2022-08-16T04:30:03.687Z,12.90
2022-08-16T04:31:01.542Z,12.40
2022-08-16T04:32:01.571Z,12.10
2022-08-16T04:33:01.507Z,12.30
2022-08-16T04:34:01.500Z,12.50
2022-08-16T04:35:07.029Z,12.90
2022-08-16T04:36:03.477Z,12.40
2022-08-16T04:37:01.947Z,12.40
2022-08-16T04:38:10.919Z,12.10
2022-08-16T04:39:02.487Z,11.90
2022-08-16T04:40:05.475Z,12.20
2022-08-16T04:41:01.442Z,12.00
2022-08-16T04:42:01.451Z,11.30
2022-08-16T04:43:02.460Z,11.90
2022-08-16T04:44:02.421Z,12.00
2022-08-16T04:45:02.660Z,11.60
2022-08-16T04:46:03.155Z,11.40
2022-08-16T04:47:03.122Z,12.30
2022-08-16T04:48:03.431Z,12.60
2022-08-16T04:49:01.404Z,12.40
2022-08-16T04:50:01.517Z,11.80
2022-08-16T04:51:01.405Z,11.10
2022-08-16T04:52:02.376Z,11.60
2022-08-16T04:53:01.411Z,10.60
2022-08-16T04:54:01.383Z,10.40
2022-08-16T04:55:01.343Z,10.80
2022-08-16T04:56:01.352Z,9.60
2022-08-16T04:57:01.349Z,10.70
2022-08-16T04:58:01.349Z,10.40
2022-08-16T04:59:01.423Z,9.80
2022-08-16T05:00:32.830Z,9.50
2022-08-16T05:01:02.320Z,9.90
2022-08-16T05:02:01.393Z,9.00
2022-08-16T05:03:02.934Z,8.70
2022-08-16T05:04:02.370Z,8.50
2022-08-16T05:05:01.283Z,9.00
2022-08-16T05:06:04.797Z,8.10
2022-08-16T05:07:01.260Z,9.00
2022-08-16T05:08:01.264Z,8.00
2022-08-16T05:09:02.293Z,7.50
2022-08-16T05:10:01.333Z,7.00
2022-08-16T05:11:01.360Z,6.40
2022-08-16T05:12:01.226Z,6.70
2022-08-16T05:13:01.217Z,7.30
2022-08-16T05:14:06.948Z,6.40
2022-08-16T05:15:03.152Z,7.40
2022-08-16T05:16:01.261Z,6.90
2022-08-16T05:17:01.206Z,6.30
2022-08-16T05:18:03.484Z,6.60
2022-08-16T05:19:01.201Z,5.70
2022-08-16T05:20:01.165Z,5.50
2022-08-16T05:21:09.612Z,6.60
2022-08-16T05:22:02.192Z,5.60
2022-08-16T05:23:01.156Z,4.60
2022-08-16T05:24:01.907Z,4.10
2022-08-16T05:25:01.140Z,4.50
2022-08-16T05:26:02.193Z,4.60
2022-08-16T05:27:11.593Z,3.80
2022-08-16T05:28:02.290Z,4.20
2022-08-16T05:29:03.658Z,4.00
2022-08-16T05:30:33.989Z,4.00
2022-08-16T05:31:03.133Z,3.80
2022-08-16T05:32:01.102Z,4.20
2022-08-16T05:33:01.079Z,3.40
2022-08-16T05:34:01.095Z,3.90
2022-08-16T05:35:01.075Z,3.40
2022-08-16T05:36:03.804Z,3.60
2022-08-16T05:37:01.110Z,3.80
2022-08-16T05:38:01.072Z,4.20
2022-08-16T05:39:01.049Z,3.60
2022-08-16T05:40:01.064Z,3.50
2022-08-16T05:41:01.055Z,3.60
2022-08-16T05:42:01.106Z,3.40
2022-08-16T05:43:01.019Z,3.70
2022-08-16T05:44:05.252Z,3.60
2022-08-16T05:45:01.007Z,3.30
2022-08-16T05:46:01.997Z,3.10
2022-08-16T05:47:00.988Z,3.80
2022-08-16T05:48:01.473Z,3.50
2022-08-16T05:49:05.939Z,3.20
2022-08-16T05:50:02.973Z,3.10
2022-08-16T05:51:00.966Z,3.20
2022-08-16T05:52:00.966Z,3.60
2022-08-16T05:53:00.980Z,3.40
2022-08-16T05:54:00.948Z,2.60
2022-08-16T05:55:01.696Z,3.20
2022-08-16T05:56:00.922Z,3.00
2022-08-16T05:57:00.915Z,2.90
2022-08-16T05:58:00.914Z,3.00
2022-08-16T05:59:00.960Z,2.90
2022-08-16T06:00:03.427Z,2.70
2022-08-16T06:01:01.979Z,2.80
2022-08-16T06:02:00.884Z,2.80
2022-08-16T06:03:00.880Z,2.60
2022-08-16T06:04:00.911Z,2.70
2022-08-16T06:05:00.861Z,2.60
2022-08-16T06:06:00.983Z,2.50
2022-08-16T06:07:03.461Z,2.60
2022-08-16T06:08:00.850Z,2.90
2022-08-16T06:09:00.833Z,2.90
2022-08-16T06:10:00.872Z,2.70
2022-08-16T06:11:04.654Z,2.70
2022-08-16T06:12:00.842Z,3.60
2022-08-16T06:13:00.806Z,2.80
2022-08-16T06:14:00.796Z,3.10
2022-08-16T06:15:00.869Z,2.60
2022-08-16T06:16:00.804Z,2.80
2022-08-16T06:17:05.299Z,2.30
2022-08-16T06:18:00.773Z,2.70
2022-08-16T06:19:04.774Z,2.60
2022-08-16T06:20:00.758Z,3.00
2022-08-16T06:21:00.795Z,2.80
2022-08-16T06:22:00.744Z,2.50
2022-08-16T06:23:04.098Z,2.90
2022-08-16T06:24:01.730Z,2.70
2022-08-16T06:25:01.724Z,2.70
2022-08-16T06:26:00.759Z,2.60
2022-08-16T06:27:00.693Z,2.50
2022-08-16T06:28:01.154Z,2.60
2022-08-16T06:29:01.742Z,2.90
2022-08-16T06:30:00.691Z,2.70
2022-08-16T06:31:01.255Z,2.50
2022-08-16T06:32:00.704Z,2.80
2022-08-16T06:33:00.666Z,2.60
2022-08-16T06:34:00.674Z,2.50
2022-08-16T06:35:02.111Z,2.70
2022-08-16T06:36:00.647Z,2.40
2022-08-16T06:37:00.643Z,2.70
2022-08-16T06:38:00.641Z,2.90
2022-08-16T06:39:00.641Z,2.60
2022-08-16T06:40:00.742Z,2.40
2022-08-16T06:41:00.613Z,3.00
2022-08-16T06:42:00.598Z,2.80
2022-08-16T06:43:00.594Z,3.00
2022-08-16T06:44:00.589Z,2.60
2022-08-16T06:45:00.624Z,2.90
2022-08-16T06:46:00.587Z,2.80
2022-08-16T06:47:02.939Z,2.80
2022-08-16T06:48:00.567Z,2.80
2022-08-16T06:49:00.559Z,2.60
2022-08-16T06:50:00.552Z,2.70
2022-08-16T06:51:00.549Z,2.60
2022-08-16T06:52:03.162Z,2.40
2022-08-16T06:53:09.007Z,2.40
2022-08-16T06:54:01.524Z,3.40
2022-08-16T06:55:00.518Z,2.60
2022-08-16T06:56:00.527Z,2.80
2022-08-16T06:57:00.504Z,2.40
2022-08-16T06:58:00.489Z,2.30
2022-08-16T06:59:00.478Z,2.40
2022-08-16T07:00:02.163Z,2.50
2022-08-16T07:01:00.626Z,2.30
2022-08-16T07:02:00.513Z,2.60
2022-08-16T07:03:00.584Z,2.50
2022-08-16T07:04:00.450Z,2.50
2022-08-16T07:05:00.458Z,2.70
2022-08-16T07:06:00.555Z,2.40
2022-08-16T07:07:00.432Z,2.20
2022-08-16T07:08:00.439Z,2.10
2022-08-16T07:09:00.415Z,2.10
2022-08-16T07:10:00.405Z,2.50
2022-08-16T07:11:01.373Z,2.30
2022-08-16T07:12:03.435Z,2.20
2022-08-16T07:13:04.231Z,2.30
2022-08-16T07:14:23.657Z,2.30
2022-08-16T07:15:01.375Z,2.60
2022-08-16T07:16:00.398Z,2.30
2022-08-16T07:17:00.370Z,2.30
2022-08-16T07:18:00.368Z,2.10
2022-08-16T07:19:02.000Z,2.30
2022-08-16T07:20:03.355Z,2.20
2022-08-16T07:21:02.149Z,2.40
2022-08-16T07:22:01.322Z,2.10
2022-08-16T07:23:00.677Z,2.20
2022-08-16T07:24:05.791Z,2.10
2022-08-16T07:25:01.329Z,2.20
2022-08-16T07:26:00.337Z,2.30
2022-08-16T07:27:00.650Z,2.20
2022-08-16T07:28:00.307Z,3.20
2022-08-16T07:29:00.279Z,2.30
2022-08-16T07:30:00.279Z,2.20
2022-08-16T07:31:00.299Z,2.20
2022-08-16T07:32:00.734Z,2.00
2022-08-16T07:33:00.253Z,2.10
2022-08-16T07:34:00.238Z,1.90
2022-08-16T07:35:00.248Z,2.30
2022-08-16T07:36:00.240Z,2.00
2022-08-16T07:37:00.309Z,2.00
2022-08-16T07:38:00.213Z,1.90
2022-08-16T07:39:00.211Z,2.00
2022-08-16T07:40:00.272Z,2.00
2022-08-16T07:41:01.542Z,2.20
2022-08-16T07:42:00.202Z,2.10
2022-08-16T07:43:00.180Z,1.90
2022-08-16T07:44:00.190Z,2.00
2022-08-16T07:45:00.168Z,1.80
2022-08-16T07:46:01.363Z,2.00
2022-08-16T07:47:00.175Z,1.80
2022-08-16T07:48:00.143Z,1.70
2022-08-16T07:49:02.482Z,1.60
2022-08-16T07:50:00.182Z,1.60
2022-08-16T07:51:02.379Z,1.70
2022-08-16T07:52:01.140Z,2.00
2022-08-16T07:53:01.884Z,1.80
2022-08-16T07:54:02.703Z,1.60
2022-08-16T07:55:00.112Z,1.60
2022-08-16T07:56:00.236Z,1.80
2022-08-16T07:57:00.112Z,1.70
2022-08-16T07:58:00.920Z,1.70
2022-08-16T07:59:00.078Z,1.80
2022-08-16T08:00:00.075Z,1.90
2022-08-16T08:01:00.116Z,1.90
2022-08-16T08:02:00.074Z,1.50
2022-08-16T08:03:00.047Z,1.70
2022-08-16T08:04:00.045Z,1.60
2022-08-16T08:05:00.029Z,1.70
2022-08-16T08:06:00.024Z,1.60
2022-08-16T08:07:00.041Z,1.90
2022-08-16T08:08:00.013Z,1.60
2022-08-16T08:09:00.010Z,1.60
2022-08-16T08:10:00.025Z,1.60
2022-08-16T08:11:08.860Z,1.70
2022-08-16T08:12:05.326Z,1.60
2022-08-16T08:12:59.980Z,1.70
2022-08-16T08:14:03.515Z,1.60
2022-08-16T08:14:59.966Z,1.70
2022-08-16T08:15:59.989Z,1.40
2022-08-16T08:17:01.519Z,1.40
2022-08-16T08:18:01.595Z,1.40
2022-08-16T08:19:02.530Z,1.50
2022-08-16T08:19:59.927Z,1.50
2022-08-16T08:20:59.942Z,1.60
2022-08-16T08:22:02.239Z,1.80
2022-08-16T08:23:01.629Z,1.50
2022-08-16T08:23:59.902Z,1.20
2022-08-16T08:24:59.888Z,1.40
2022-08-16T08:25:59.875Z,1.40
2022-08-16T08:26:59.935Z,1.40
2022-08-16T08:27:59.868Z,1.30
2022-08-16T08:29:01.009Z,1.50
2022-08-16T08:30:50.166Z,1.20
2022-08-16T08:31:03.016Z,1.30
2022-08-16T08:31:59.841Z,1.30
2022-08-16T08:33:01.035Z,1.30
2022-08-16T08:34:00.836Z,1.20
2022-08-16T08:35:03.337Z,1.20
2022-08-16T08:36:01.078Z,1.30
2022-08-16T08:36:59.822Z,1.10
2022-08-16T08:38:00.159Z,1.40
2022-08-16T08:38:59.800Z,1.40
2022-08-16T08:39:59.806Z,1.50
2022-08-16T08:40:59.780Z,1.30
2022-08-16T08:41:59.771Z,1.40
2022-08-16T08:43:00.772Z,1.20
2022-08-16T08:44:00.834Z,1.20
2022-08-16T08:45:00.761Z,1.10
2022-08-16T08:45:59.747Z,1.30
2022-08-16T08:47:01.896Z,1.20
2022-08-16T08:47:59.755Z,1.30
2022-08-16T08:49:02.101Z,1.30
2022-08-16T08:49:59.716Z,1.30
2022-08-16T08:50:59.709Z,1.40
2022-08-16T08:51:59.708Z,1.30
2022-08-16T08:52:59.732Z,1.20
2022-08-16T08:53:59.699Z,1.30
2022-08-16T08:54:59.683Z,1.20
2022-08-16T08:55:59.675Z,1.10
2022-08-16T08:56:59.676Z,1.10
2022-08-16T08:57:59.707Z,1.10
2022-08-16T08:59:03.206Z,1.20
2022-08-16T09:00:01.735Z,1.30
2022-08-16T09:01:01.567Z,1.30
2022-08-16T09:01:59.627Z,1.30
2022-08-16T09:02:59.758Z,1.30
2022-08-16T09:03:59.661Z,1.40
2022-08-16T09:04:59.600Z,1.20
2022-08-16T09:05:59.600Z,1.30
2022-08-16T09:07:01.286Z,1.50
2022-08-16T09:08:01.604Z,1.40
2022-08-16T09:09:00.615Z,1.40
2022-08-16T09:10:06.156Z,1.30
2022-08-16T09:11:02.253Z,1.50
2022-08-16T09:12:06.018Z,1.30
2022-08-16T09:13:00.551Z,1.40
2022-08-16T09:13:59.573Z,1.50
2022-08-16T09:14:59.549Z,1.40
2022-08-16T09:15:59.535Z,1.30
2022-08-16T09:17:03.197Z,1.50
2022-08-16T09:17:59.654Z,1.40
2022-08-16T09:19:02.445Z,1.30
2022-08-16T09:20:04.679Z,1.40
2022-08-16T09:21:00.793Z,1.50
2022-08-16T09:21:59.496Z,1.60
2022-08-16T09:22:59.489Z,1.60
2022-08-16T09:23:59.573Z,1.60
2022-08-16T09:25:09.788Z,1.50
2022-08-16T09:26:00.469Z,1.40
2022-08-16T09:26:59.460Z,1.30
2022-08-16T09:28:02.183Z,1.40
2022-08-16T09:29:14.402Z,1.00
2022-08-16T09:30:02.648Z,1.30
2022-08-16T09:31:00.432Z,1.20
2022-08-16T09:31:59.433Z,1.40
2022-08-16T09:32:59.429Z,1.30
2022-08-16T09:33:59.446Z,1.20
2022-08-16T09:34:59.416Z,1.30
2022-08-16T09:35:59.405Z,1.40
2022-08-16T09:37:00.355Z,1.30
2022-08-16T09:38:00.457Z,1.20
2022-08-16T09:38:59.695Z,1.10
2022-08-16T09:39:59.513Z,1.10
2022-08-16T09:40:59.394Z,1.10
2022-08-16T09:41:59.360Z,1.10
2022-08-16T09:42:59.833Z,1.40
2022-08-16T09:45:09.397Z,1.20
2022-08-16T09:45:11.604Z,1.40
2022-08-16T09:46:00.332Z,1.40
2022-08-16T09:46:59.317Z,1.30
2022-08-16T09:47:59.317Z,1.30
2022-08-16T09:48:59.340Z,1.50
2022-08-16T09:49:59.310Z,1.30
2022-08-16T09:50:59.312Z,1.30
2022-08-16T09:51:59.289Z,1.40
2022-08-16T09:52:59.277Z,1.40
2022-08-16T09:53:59.332Z,1.40
2022-08-16T09:54:59.268Z,1.20
2022-08-16T09:55:59.255Z,1.30
2022-08-16T09:56:59.253Z,1.10
2022-08-16T09:57:59.238Z,1.30
2022-08-16T09:59:04.998Z,1.10
2022-08-16T10:00:00.237Z,1.20
2022-08-16T10:01:00.813Z,1.10
2022-08-16T10:01:59.224Z,1.00
2022-08-16T10:02:59.259Z,1.10
2022-08-16T10:04:02.685Z,1.10
2022-08-16T10:05:00.376Z,1.10
2022-08-16T10:05:59.185Z,1.10
2022-08-16T10:07:59.182Z,1.20
2022-08-16T10:09:05.410Z,1.10
2022-08-16T10:10:00.213Z,0.90
2022-08-16T10:10:59.169Z,1.00
2022-08-16T10:12:11.835Z,0.90
2022-08-16T10:13:00.149Z,0.90
2022-08-16T10:13:59.146Z,1.10
2022-08-16T10:14:59.136Z,1.10
2022-08-16T10:15:59.181Z,1.00
2022-08-16T10:16:59.982Z,0.90
2022-08-16T10:18:01.347Z,1.00
2022-08-16T10:19:01.785Z,0.80
2022-08-16T10:20:00.111Z,1.00
2022-08-16T10:20:59.125Z,1.00
2022-08-16T10:21:59.097Z,0.90
2022-08-16T10:23:06.099Z,0.90
2022-08-16T10:24:01.070Z,1.10
2022-08-16T10:24:59.754Z,0.90
2022-08-16T10:27:21.946Z,1.10
2022-08-16T10:27:25.311Z,0.90
2022-08-16T10:28:26.288Z,0.90
2022-08-16T10:29:01.036Z,0.80
2022-08-16T10:30:00.028Z,1.10
2022-08-16T10:30:59.516Z,0.90
2022-08-16T10:31:59.062Z,1.00
2022-08-16T10:32:59.006Z,0.90
2022-08-16T10:33:59.012Z,1.00
2022-08-16T10:34:59.005Z,0.80
2022-08-16T10:36:03.345Z,0.90
2022-08-16T10:37:01.029Z,0.90
2022-08-16T10:37:58.997Z,0.80
2022-08-16T10:38:58.974Z,1.00
2022-08-16T10:39:59.026Z,0.90
2022-08-16T10:40:59.084Z,0.90
2022-08-16T10:41:58.964Z,0.80
2022-08-16T10:42:58.993Z,0.90
2022-08-16T10:43:58.958Z,0.80
2022-08-16T10:44:58.938Z,0.90
2022-08-16T10:46:00.963Z,1.10
2022-08-16T10:46:58.933Z,0.90
2022-08-16T10:48:02.745Z,0.80
2022-08-16T10:48:58.926Z,1.00
2022-08-16T10:49:58.909Z,0.90
2022-08-16T10:50:59.262Z,0.90
2022-08-16T10:52:01.716Z,0.80
2022-08-16T10:52:59.350Z,0.90
2022-08-16T10:53:59.933Z,1.00
2022-08-16T10:54:59.352Z,0.90
2022-08-16T10:56:01.315Z,0.90
2022-08-16T10:56:59.077Z,0.90
2022-08-16T10:57:58.868Z,1.00
2022-08-16T10:59:32.373Z,0.80
2022-08-16T11:00:01.382Z,0.80
2022-08-16T11:00:59.095Z,0.90
2022-08-16T11:03:04.849Z,0.90
2022-08-16T11:04:00.076Z,1.00
2022-08-16T11:05:08.111Z,0.90
2022-08-16T11:06:00.939Z,1.10
2022-08-16T11:07:08.407Z,0.90
2022-08-16T11:08:00.861Z,1.00
2022-08-16T11:09:29.302Z,0.90
2022-08-16T11:10:19.772Z,1.20
2022-08-16T11:11:07.551Z,1.00
2022-08-16T11:12:15.120Z,1.00
2022-08-16T11:13:21.107Z,1.10
2022-08-16T11:14:11.409Z,1.10
2022-08-16T11:15:16.831Z,1.10
2022-08-16T11:16:00.981Z,0.90
2022-08-16T11:17:02.298Z,0.80
2022-08-16T11:19:05.590Z,0.70
2022-08-16T11:20:36.704Z,0.90
2022-08-16T11:21:00.793Z,0.90
2022-08-16T11:22:39.096Z,0.80
2022-08-16T11:23:00.741Z,0.90
2022-08-16T11:23:59.572Z,0.90
2022-08-16T11:25:59.439Z,1.10
2022-08-16T11:26:16.674Z,1.10
2022-08-16T11:28:00.749Z,1.10
2022-08-16T11:29:14.828Z,1.10
2022-08-16T11:30:00.997Z,1.00
2022-08-16T11:30:58.693Z,0.90
2022-08-16T11:31:58.727Z,1.10
2022-08-16T11:32:58.680Z,0.90
2022-08-16T11:33:58.673Z,0.90
2022-08-16T11:35:14.583Z,1.00
2022-08-16T11:36:29.111Z,1.00
2022-08-16T11:37:01.293Z,0.90
2022-08-16T11:38:23.561Z,1.00
2022-08-16T11:39:01.036Z,0.90
2022-08-16T11:39:59.644Z,1.00
2022-08-16T11:40:58.613Z,1.00
2022-08-16T11:41:58.654Z,1.00
2022-08-16T11:42:58.616Z,1.00
2022-08-16T11:43:58.605Z,1.10
2022-08-16T11:44:58.599Z,1.10
2022-08-16T11:45:58.585Z,0.90
2022-08-16T11:46:59.624Z,1.10
2022-08-16T11:47:58.572Z,0.90
2022-08-16T11:48:58.600Z,1.00
2022-08-16T11:49:58.644Z,1.00
2022-08-16T11:50:58.547Z,1.10
2022-08-16T11:51:58.548Z,1.10
2022-08-16T11:52:58.682Z,1.00
2022-08-16T11:53:58.545Z,1.00
2022-08-16T11:55:00.119Z,1.10
2022-08-16T11:55:58.557Z,1.10
2022-08-16T11:56:58.503Z,1.00
2022-08-16T11:57:58.531Z,1.10
2022-08-16T11:58:58.491Z,0.90
2022-08-16T11:59:58.481Z,1.10
2022-08-16T12:00:58.481Z,0.80
2022-08-16T12:01:59.337Z,1.10
2022-08-16T12:02:58.465Z,1.00
2022-08-16T12:03:58.550Z,1.10
2022-08-16T12:04:58.449Z,1.10
2022-08-16T12:05:58.442Z,0.90
2022-08-16T12:06:58.419Z,1.00
2022-08-16T12:07:58.428Z,1.00
2022-08-16T12:09:00.877Z,1.00
2022-08-16T12:09:58.411Z,0.80
2022-08-16T12:10:59.266Z,1.10
2022-08-16T12:11:58.405Z,1.00
2022-08-16T12:12:58.395Z,1.00
2022-08-16T12:13:58.387Z,1.10
2022-08-16T12:15:00.108Z,0.80
2022-08-16T12:15:58.379Z,0.90
2022-08-16T12:16:58.365Z,1.00
2022-08-16T12:17:58.361Z,1.00
2022-08-16T12:18:58.344Z,0.90
2022-08-16T12:19:58.376Z,0.90
2022-08-16T12:20:58.470Z,0.80
2022-08-16T12:21:59.601Z,1.00
2022-08-16T12:22:58.328Z,0.90
2022-08-16T12:23:58.318Z,1.00
2022-08-16T12:24:58.308Z,1.40
2022-08-16T12:25:58.353Z,1.20
2022-08-16T12:26:58.296Z,1.10
2022-08-16T12:27:58.298Z,1.00
2022-08-16T12:28:58.286Z,1.00
2022-08-16T12:29:58.819Z,1.00
2022-08-16T12:30:58.314Z,0.90
2022-08-16T12:32:01.316Z,1.00
2022-08-16T12:32:59.296Z,1.00
2022-08-16T12:33:58.254Z,1.00
2022-08-16T12:34:58.236Z,0.90
2022-08-16T12:35:58.241Z,0.90
2022-08-16T12:36:58.280Z,1.00
2022-08-16T12:37:58.233Z,1.00
2022-08-16T12:38:58.217Z,1.00
2022-08-16T12:39:58.324Z,0.90
2022-08-16T12:40:58.215Z,1.10
2022-08-16T12:41:58.233Z,0.90
2022-08-16T12:42:59.135Z,0.90
2022-08-16T12:44:01.075Z,0.90
2022-08-16T12:44:58.184Z,1.10
2022-08-16T12:45:58.350Z,1.00
2022-08-16T12:46:58.175Z,0.80
2022-08-16T12:48:29.714Z,1.00
2022-08-16T12:49:00.176Z,0.90
2022-08-16T12:49:58.147Z,1.00
2022-08-16T12:50:58.149Z,1.00
2022-08-16T12:52:01.264Z,1.10
2022-08-16T12:52:58.487Z,0.90
2022-08-16T12:53:58.239Z,0.90
2022-08-16T12:54:58.108Z,1.00
2022-08-16T12:55:58.106Z,1.10
2022-08-16T12:56:58.110Z,0.90
2022-08-16T12:58:00.286Z,1.00
2022-08-16T12:58:58.124Z,1.00
2022-08-16T12:59:58.085Z,0.80
2022-08-16T13:00:58.109Z,1.00
2022-08-16T13:01:58.678Z,1.10
2022-08-16T13:02:58.076Z,0.90
2022-08-16T13:04:20.522Z,0.80
2022-08-16T13:05:00.069Z,1.00
2022-08-16T13:05:58.068Z,1.10
2022-08-16T13:06:58.062Z,1.00
2022-08-16T13:07:58.406Z,0.90
2022-08-16T13:08:58.041Z,1.00
2022-08-16T13:09:58.062Z,1.10
2022-08-16T13:10:58.018Z,0.90
2022-08-16T13:11:58.182Z,1.00
2022-08-16T13:12:58.000Z,0.80
2022-08-16T13:13:58.005Z,0.90
2022-08-16T13:14:58.065Z,0.90
2022-08-16T13:16:02.199Z,1.00
2022-08-16T13:16:59.982Z,1.00
2022-08-16T13:17:57.980Z,1.20
2022-08-16T13:18:57.969Z,0.90